Time;durP1;ratioP1;P1;durP2;ratioP2;P2;SDS_P1;SDS_P2;PMS_P1;PMS_P2;Temp;Humidity;BMP_temperature;BMP_pressure;BME280_temperature;BME280_humidity;BME280_pressure;Samples;Min_cycle;Max_cycle;Signal;HPM_P1;HPM_P2
2022/03/18 00:00:33;;;;;;;9.05;6.50;;;-0.10;59.30;;;;;;5097850;28;20070;-60
2022/03/18 00:02:59;;;;;;;7.25;6.45;;;-0.10;59.20;;;;;;5094464;28;20027;-60
2022/03/18 00:05:25;;;;;;;9.30;7.05;;;-0.10;59.30;;;;;;5091384;28;20404;-60
2022/03/18 00:07:52;;;;;;;7.30;6.13;;;-0.10;59.40;;;;;;5105080;28;20101;-60
2022/03/18 00:10:18;;;;;;;7.07;6.15;;;-0.10;59.50;;;;;;5084391;28;20020;-59
2022/03/18 00:12:46;;;;;;;8.27;5.88;;;-0.10;59.60;;;;;;5101430;28;20051;-60
2022/03/18 00:15:13;;;;;;;8.15;5.85;;;-0.10;59.70;;;;;;5099084;28;20659;-60
2022/03/18 00:17:41;;;;;;;8.13;6.25;;;-0.10;59.80;;;;;;5073475;28;20025;-60
2022/03/18 00:20:09;;;;;;;6.35;5.70;;;-0.10;59.70;;;;;;5094169;28;20107;-60
2022/03/18 00:22:35;;;;;;;8.65;6.03;;;-0.10;59.80;;;;;;5101001;28;20494;-60
2022/03/18 00:25:01;;;;;;;7.55;6.20;;;-0.20;59.70;;;;;;5103534;28;20032;-59
2022/03/18 00:27:27;;;;;;;9.40;6.45;;;-0.20;59.70;;;;;;5099735;28;20066;-60
2022/03/18 00:29:54;;;;;;;7.80;6.38;;;-0.20;60.00;;;;;;5088360;28;20029;-60
2022/03/18 00:32:20;;;;;;;9.32;7.38;;;-0.20;60.00;;;;;;5099319;28;20033;-61
2022/03/18 00:34:46;;;;;;;7.20;6.47;;;-0.20;60.10;;;;;;5098032;28;20492;-61
2022/03/18 00:37:12;;;;;;;6.72;5.72;;;-0.20;60.20;;;;;;5098128;28;20043;-61
2022/03/18 00:39:37;;;;;;;7.55;6.35;;;-0.30;60.10;;;;;;5101481;28;20024;-61
2022/03/18 00:42:04;;;;;;;7.35;6.50;;;-0.30;60.30;;;;;;5097642;28;20027;-61
2022/03/18 00:44:29;;;;;;;7.65;6.15;;;-0.40;60.60;;;;;;5097117;28;20099;-61
2022/03/18 00:46:55;;;;;;;7.50;6.35;;;-0.40;60.80;;;;;;5105265;28;20095;-61
2022/03/18 00:52:05;;;;;;;7.65;6.07;;;-0.40;60.80;;;;;;5091859;28;20031;-61
2022/03/18 00:54:36;;;;;;;6.13;4.50;;;-0.40;60.80;;;;;;5103010;28;20038;-61
2022/03/18 00:57:02;;;;;;;6.60;5.90;;;-0.50;61.40;;;;;;5090234;28;20036;-61
2022/03/18 00:59:28;;;;;;;6.88;5.95;;;-0.50;61.30;;;;;;5095777;28;20024;-62
2022/03/18 01:01:54;;;;;;;6.68;5.97;;;-0.40;61.40;;;;;;5095548;28;20502;-61
2022/03/18 01:04:21;;;;;;;6.75;4.75;;;-0.40;61.30;;;;;;5094222;28;20122;-61
2022/03/18 01:06:49;;;;;;;7.50;6.18;;;-0.50;61.00;;;;;;5109500;28;20523;-61
2022/03/18 01:09:16;;;;;;;8.98;6.15;;;-0.50;61.10;;;;;;5087736;28;20024;-61
2022/03/18 01:11:43;;;;;;;7.00;6.20;;;-0.60;60.90;;;;;;5087762;28;20115;-62
2022/03/18 01:14:08;;;;;;;6.53;4.30;;;-0.60;60.60;;;;;;5108739;28;20032;-61
2022/03/18 01:16:34;;;;;;;7.07;6.00;;;-0.70;60.70;;;;;;5100113;28;20394;-61
2022/03/18 01:19:00;;;;;;;9.15;6.65;;;-0.70;60.90;;;;;;5114106;28;20032;-61
2022/03/18 01:21:26;;;;;;;8.23;6.20;;;-0.70;60.60;;;;;;5106216;28;20064;-61
2022/03/18 01:23:51;;;;;;;7.68;4.50;;;-0.70;60.50;;;;;;5108225;28;20024;-61
2022/03/18 01:26:18;;;;;;;8.07;5.70;;;-0.80;60.40;;;;;;5097653;28;20027;-62
2022/03/18 01:28:43;;;;;;;7.70;6.90;;;-0.80;60.60;;;;;;5107550;28;20015;-61
2022/03/18 01:31:09;;;;;;;8.02;6.57;;;-0.80;60.30;;;;;;5093891;28;20039;-61
2022/03/18 01:33:36;;;;;;;6.15;4.32;;;-0.80;60.30;;;;;;5115863;28;20046;-61
2022/03/18 01:36:03;;;;;;;8.07;6.70;;;-0.90;60.20;;;;;;5098092;28;20023;-61
2022/03/18 01:38:29;;;;;;;8.40;6.90;;;-0.80;60.90;;;;;;5088571;28;20032;-61
2022/03/18 01:40:55;;;;;;;7.82;6.85;;;-0.80;60.60;;;;;;5090863;28;20016;-61
2022/03/18 01:43:21;;;;;;;7.25;6.38;;;-0.80;60.40;;;;;;5080223;28;20393;-61
2022/03/18 01:45:46;;;;;;;7.75;6.65;;;-0.80;60.60;;;;;;5098558;28;20020;-61
2022/03/18 01:48:13;;;;;;;7.93;6.47;;;-0.70;60.80;;;;;;5110208;28;20024;-61
2022/03/18 01:50:40;;;;;;;7.30;6.30;;;-0.80;60.80;;;;;;5092627;28;20012;-61
2022/03/18 01:53:07;;;;;;;8.38;7.10;;;-0.80;60.90;;;;;;5100503;28;20103;-61
2022/03/18 01:55:32;;;;;;;7.28;6.13;;;-0.80;61.20;;;;;;5110410;28;20024;-61
2022/03/18 01:57:58;;;;;;;8.00;6.55;;;-0.80;60.90;;;;;;5091946;28;20095;-62
2022/03/18 02:00:24;;;;;;;7.32;6.63;;;-0.80;61.10;;;;;;5098822;28;20069;-61
2022/03/18 02:02:51;;;;;;;7.78;6.80;;;-0.80;61.10;;;;;;5094637;28;20052;-61
2022/03/18 02:05:17;;;;;;;7.60;6.53;;;-0.80;61.40;;;;;;5100613;28;20074;-61
2022/03/18 02:07:45;;;;;;;6.93;6.13;;;-0.80;61.40;;;;;;5109053;28;20498;-61
2022/03/18 02:10:11;;;;;;;9.05;7.32;;;-0.80;61.20;;;;;;5087453;28;20024;-61
2022/03/18 02:12:37;;;;;;;10.50;7.53;;;-0.80;61.20;;;;;;5110900;28;20050;-61
2022/03/18 02:15:03;;;;;;;8.05;6.65;;;-0.90;61.10;;;;;;5104171;28;20034;-61
2022/03/18 02:17:29;;;;;;;7.10;4.55;;;-0.90;61.10;;;;;;5100954;28;20060;-61
2022/03/18 02:19:55;;;;;;;8.05;6.10;;;-1.00;61.30;;;;;;5101932;28;20402;-61
2022/03/18 02:22:25;;;;;;;7.20;6.03;;;-1.00;61.80;;;;;;5101474;28;20115;-61
2022/03/18 02:24:53;;;;;;;7.10;6.38;;;-1.00;61.90;;;;;;5100353;28;20471;-61
2022/03/18 02:27:19;;;;;;;8.05;6.47;;;-1.00;61.80;;;;;;5112276;28;20043;-61
2022/03/18 02:29:45;;;;;;;8.82;6.55;;;-1.00;61.80;;;;;;5096184;28;20056;-61
2022/03/18 02:32:13;;;;;;;8.20;6.60;;;-1.00;61.80;;;;;;5089286;28;20035;-61
2022/03/18 02:34:40;;;;;;;5.68;4.20;;;-1.10;61.60;;;;;;5095194;28;20494;-61
2022/03/18 02:37:06;;;;;;;7.47;4.30;;;-1.20;61.70;;;;;;5097528;28;20048;-61
2022/03/18 02:39:32;;;;;;;9.45;4.80;;;-1.30;62.00;;;;;;5102067;28;20035;-61
2022/03/18 02:41:58;;;;;;;6.70;6.00;;;-1.30;62.10;;;;;;5098274;28;20384;-61
2022/03/18 02:44:24;;;;;;;8.27;6.18;;;-1.30;62.10;;;;;;5108617;28;20032;-61
2022/03/18 02:46:50;;;;;;;7.65;6.28;;;-1.30;62.30;;;;;;5096566;28;20077;-61
2022/03/18 02:49:16;;;;;;;10.90;4.78;;;-1.20;62.30;;;;;;5108426;28;20020;-61
2022/03/18 02:51:42;;;;;;;8.45;6.65;;;-1.20;62.40;;;;;;5094184;28;20036;-62
2022/03/18 02:54:09;;;;;;;7.90;6.80;;;-1.30;62.40;;;;;;5091987;28;20057;-62
2022/03/18 02:56:35;;;;;;;8.02;4.38;;;-1.20;62.10;;;;;;5087495;28;20039;-62
2022/03/18 02:59:02;;;;;;;7.65;6.38;;;-1.30;62.10;;;;;;5099555;28;20366;-62
2022/03/18 03:01:30;;;;;;;7.35;6.50;;;-1.30;62.30;;;;;;5095269;28;20040;-62
2022/03/18 03:03:57;;;;;;;7.95;6.60;;;-1.20;62.10;;;;;;5107576;28;20031;-62
2022/03/18 03:09:07;;;;;;;8.52;6.75;;;-1.20;62.20;;;;;;5088950;28;20035;-62
2022/03/18 03:11:33;;;;;;;6.38;4.65;;;-1.30;62.30;;;;;;5089962;28;20032;-62
2022/03/18 03:14:00;;;;;;;7.90;6.65;;;-1.30;62.40;;;;;;5090748;28;20044;-62
2022/03/18 03:16:26;;;;;;;9.80;7.45;;;-1.40;62.60;;;;;;5079903;28;20032;-62
2022/03/18 03:18:52;;;;;;;7.88;4.88;;;-1.40;62.40;;;;;;5086146;28;20060;-62
2022/03/18 03:21:18;;;;;;;8.05;6.35;;;-1.40;62.60;;;;;;5075301;28;20032;-62
2022/03/18 03:23:44;;;;;;;8.18;6.55;;;-1.40;62.50;;;;;;5093348;28;20046;-62
2022/03/18 03:26:10;;;;;;;9.18;7.25;;;-1.40;62.40;;;;;;5099646;28;20085;-62
2022/03/18 03:28:37;;;;;;;8.32;4.82;;;-1.40;62.90;;;;;;5106273;28;20055;-62
2022/03/18 03:31:03;;;;;;;7.85;6.53;;;-1.60;62.80;;;;;;5087153;28;20079;-62
2022/03/18 03:33:29;;;;;;;8.95;7.50;;;-1.50;63.10;;;;;;5096770;28;20034;-62
2022/03/18 03:35:55;;;;;;;5.50;4.10;;;-1.50;63.00;;;;;;5089471;28;20040;-62
2022/03/18 03:38:21;;;;;;;7.72;6.78;;;-1.60;63.20;;;;;;5074209;28;20400;-62
2022/03/18 03:40:48;;;;;;;8.32;7.20;;;-1.60;63.40;;;;;;5090315;28;20065;-62
2022/03/18 03:43:14;;;;;;;9.55;7.35;;;-1.50;63.40;;;;;;5087217;28;20039;-62
2022/03/18 03:45:40;;;;;;;7.90;6.85;;;-1.50;63.30;;;;;;5084734;28;20017;-62
2022/03/18 03:48:06;;;;;;;7.72;6.90;;;-1.50;63.40;;;;;;5114360;28;20415;-61
2022/03/18 03:50:33;;;;;;;7.35;6.60;;;-1.50;63.10;;;;;;5102534;28;20154;-62
2022/03/18 03:52:59;;;;;;;8.05;7.25;;;-1.50;63.20;;;;;;5082462;28;20025;-62
2022/03/18 03:55:25;;;;;;;7.45;4.93;;;-1.50;63.00;;;;;;5080156;28;20518;-62
2022/03/18 03:57:51;;;;;;;7.80;6.93;;;-1.60;63.20;;;;;;5087865;28;20038;-61
2022/03/18 04:00:17;;;;;;;5.90;4.95;;;-1.70;63.30;;;;;;5092430;28;20357;-61
2022/03/18 04:02:46;;;;;;;7.28;4.85;;;-1.70;63.20;;;;;;5090290;28;20050;-61
2022/03/18 04:05:12;;;;;;;8.30;6.90;;;-1.80;63.50;;;;;;5092992;28;20044;-61
2022/03/18 04:07:39;;;;;;;8.32;7.07;;;-1.80;63.70;;;;;;5092650;28;20028;-61
2022/03/18 04:10:07;;;;;;;10.90;6.78;;;-1.70;63.80;;;;;;5085128;28;20048;-61
2022/03/18 04:12:33;;;;;;;8.27;6.90;;;-1.70;63.50;;;;;;5093516;28;20025;-61
2022/03/18 04:14:59;;;;;;;8.32;4.68;;;-1.60;63.90;;;;;;5083132;28;20039;-61
2022/03/18 04:17:28;;;;;;;7.85;6.50;;;-1.70;63.40;;;;;;5092796;28;20028;-61
2022/03/18 04:19:53;;;;;;;10.07;5.18;;;-1.70;63.40;;;;;;5089250;28;20465;-61
2022/03/18 04:22:20;;;;;;;8.15;5.15;;;-1.80;63.30;;;;;;5107082;28;20024;-61
2022/03/18 04:24:46;;;;;;;7.57;6.15;;;-1.80;63.50;;;;;;5106518;28;20035;-61
2022/03/18 04:27:12;;;;;;;8.25;6.90;;;-1.80;64.00;;;;;;5110244;28;20032;-61
2022/03/18 04:29:38;;;;;;;8.88;6.75;;;-1.70;63.90;;;;;;5099127;28;20027;-61
2022/03/18 04:32:04;;;;;;;8.63;7.22;;;-1.70;63.40;;;;;;5105367;28;20039;-61
2022/03/18 04:34:29;;;;;;;9.60;7.32;;;-1.70;63.40;;;;;;5085762;28;20028;-61
2022/03/18 04:36:55;;;;;;;9.65;7.13;;;-1.60;63.60;;;;;;5105445;28;20055;-61
2022/03/18 04:39:21;;;;;;;9.13;6.68;;;-1.60;63.10;;;;;;5082965;28;20032;-61
2022/03/18 04:41:46;;;;;;;9.18;7.22;;;-1.60;63.10;;;;;;5102687;28;20472;-61
2022/03/18 04:44:12;;;;;;;9.13;7.03;;;-1.60;62.90;;;;;;5102540;28;20429;-61
2022/03/18 04:46:38;;;;;;;8.07;4.72;;;-1.60;63.20;;;;;;5091477;28;20085;-61
2022/03/18 04:49:04;;;;;;;7.90;6.75;;;-1.60;63.20;;;;;;5105573;28;20028;-61
2022/03/18 04:51:30;;;;;;;9.23;7.25;;;-1.50;63.20;;;;;;5106315;28;20027;-61
2022/03/18 04:53:57;;;;;;;8.05;7.18;;;-1.50;62.80;;;;;;5100377;28;20186;-62
2022/03/18 04:59:07;;;;;;;8.90;6.88;;;-1.40;63.10;;;;;;5111298;28;20061;-62
2022/03/18 05:01:33;;;;;;;8.07;7.00;;;-1.30;63.00;;;;;;5098928;28;20029;-61
2022/03/18 05:03:59;;;;;;;7.43;6.60;;;-1.20;62.80;;;;;;5100150;28;20425;-61
2022/03/18 05:06:26;;;;;;;8.02;6.60;;;-1.20;62.40;;;;;;5095426;28;20036;-62
2022/03/18 05:08:52;;;;;;;10.77;8.07;;;-1.10;62.30;;;;;;5082037;28;20383;-62
2022/03/18 05:11:18;;;;;;;8.73;6.78;;;-1.10;62.30;;;;;;5091453;28;20583;-62
2022/03/18 05:13:44;;;;;;;9.50;6.82;;;-1.00;62.20;;;;;;5097419;28;20102;-62
2022/03/18 05:16:10;;;;;;;7.75;6.93;;;-0.90;62.10;;;;;;5110195;28;20296;-62
2022/03/18 05:18:36;;;;;;;8.82;7.15;;;-0.70;62.10;;;;;;5096807;28;20095;-62
2022/03/18 05:21:03;;;;;;;7.55;6.68;;;-0.60;61.90;;;;;;5094938;28;20114;-62
2022/03/18 05:23:29;;;;;;;10.40;6.57;;;-0.50;61.70;;;;;;5089179;28;20426;-62
2022/03/18 05:25:54;;;;;;;8.60;7.40;;;-0.30;61.10;;;;;;5110294;28;20073;-62
2022/03/18 05:28:20;;;;;;;9.13;6.50;;;-0.10;61.40;;;;;;5088919;28;20028;-62
2022/03/18 05:30:46;;;;;;;8.48;6.88;;;0.10;60.90;;;;;;5105839;28;20028;-62
2022/03/18 05:33:12;;;;;;;7.30;6.13;;;0.40;60.30;;;;;;5101353;28;20048;-62
2022/03/18 05:35:37;;;;;;;7.82;6.78;;;0.70;59.70;;;;;;5116577;28;20020;-62
2022/03/18 05:38:03;;;;;;;7.80;6.40;;;0.90;58.90;;;;;;5100802;28;20506;-61
2022/03/18 05:40:28;;;;;;;9.27;6.22;;;1.10;58.50;;;;;;5107070;28;20047;-62
2022/03/18 05:42:54;;;;;;;8.68;6.35;;;1.20;57.80;;;;;;5096274;28;20024;-62
2022/03/18 05:45:20;;;;;;;7.78;6.50;;;1.40;57.10;;;;;;5108909;28;20055;-61
2022/03/18 05:47:46;;;;;;;7.38;6.15;;;1.50;56.80;;;;;;5100923;28;20113;-62
2022/03/18 05:50:16;;;;;;;6.93;6.22;;;1.80;56.70;;;;;;5096715;28;20950;-62
2022/03/18 05:52:45;;;;;;;6.55;5.75;;;1.90;55.80;;;;;;5096980;28;20080;-62
2022/03/18 05:55:11;;;;;;;6.68;5.60;;;2.00;55.80;;;;;;5106569;28;20032;-62
2022/03/18 05:57:36;;;;;;;6.38;5.43;;;2.00;55.30;;;;;;5097270;28;20047;-62
2022/03/18 06:00:03;;;;;;;8.20;5.70;;;2.00;54.80;;;;;;5094270;28;20051;-62
2022/03/18 06:02:29;;;;;;;7.13;5.53;;;2.10;54.50;;;;;;5087048;28;20028;-62
2022/03/18 06:04:55;;;;;;;6.63;5.43;;;2.10;54.60;;;;;;5097676;28;20039;-62
2022/03/18 06:07:21;;;;;;;7.35;6.57;;;2.40;54.40;;;;;;5101595;28;20038;-62
2022/03/18 06:12:31;;;;;;;6.05;5.28;;;3.20;53.70;;;;;;5095015;28;20174;-62
2022/03/18 06:14:56;;;;;;;6.53;3.70;;;3.70;53.40;;;;;;5081688;28;20138;-62
2022/03/18 06:17:22;;;;;;;4.15;3.55;;;4.20;52.90;;;;;;5101151;28;20023;-63
2022/03/18 06:19:48;;;;;;;5.28;3.38;;;4.60;53.10;;;;;;5100810;28;20029;-63
2022/03/18 06:22:14;;;;;;;5.63;4.72;;;4.90;53.10;;;;;;5083094;28;20081;-63
2022/03/18 06:24:40;;;;;;;4.65;3.28;;;5.10;51.00;;;;;;5101274;28;20084;-63
2022/03/18 06:27:06;;;;;;;6.35;4.65;;;5.10;50.40;;;;;;5100567;28;20035;-63
2022/03/18 06:29:31;;;;;;;5.32;3.72;;;5.00;49.70;;;;;;5101292;28;20035;-63
2022/03/18 06:31:58;;;;;;;5.78;4.93;;;4.80;49.60;;;;;;5081885;28;20088;-63
2022/03/18 06:34:24;;;;;;;7.72;5.25;;;4.40;49.80;;;;;;5095255;28;20028;-63
2022/03/18 06:36:52;;;;;;;10.25;5.60;;;3.90;49.80;;;;;;5099532;28;20059;-63
2022/03/18 06:39:19;;;;;;;4.95;3.85;;;3.50;50.60;;;;;;5095818;28;20023;-63
2022/03/18 06:41:45;;;;;;;6.60;5.38;;;3.00;51.20;;;;;;5084990;28;20468;-63
2022/03/18 06:44:11;;;;;;;6.50;5.50;;;2.70;51.80;;;;;;5092873;28;20544;-62
2022/03/18 06:46:38;;;;;;;7.65;5.60;;;2.40;52.20;;;;;;5090186;28;20019;-63
2022/03/18 06:49:05;;;;;;;8.25;5.95;;;2.20;52.50;;;;;;5097137;28;20028;-63
2022/03/18 06:51:31;;;;;;;6.65;5.50;;;1.90;52.80;;;;;;5094239;28;20020;-63
2022/03/18 06:53:57;;;;;;;7.22;6.00;;;1.80;53.10;;;;;;5096658;28;20442;-63
2022/03/18 06:56:23;;;;;;;6.32;5.47;;;1.70;53.10;;;;;;5068444;28;20024;-63
2022/03/18 06:58:49;;;;;;;7.43;5.82;;;1.60;53.50;;;;;;5082187;28;20081;-63
2022/03/18 07:01:15;;;;;;;7.75;5.70;;;1.60;53.80;;;;;;5079162;28;20031;-63
2022/03/18 07:03:40;;;;;;;6.70;5.78;;;1.60;54.00;;;;;;5071560;28;20035;-63
2022/03/18 07:06:06;;;;;;;6.75;5.40;;;1.60;54.10;;;;;;5076985;28;20085;-63
2022/03/18 07:08:35;;;;;;;7.78;5.93;;;1.60;54.00;;;;;;5075484;28;20499;-63
2022/03/18 07:11:04;;;;;;;6.47;5.60;;;1.50;54.20;;;;;;5087307;28;20439;-63
2022/03/18 07:13:30;;;;;;;7.05;5.40;;;1.40;54.50;;;;;;5089906;28;20445;-63
2022/03/18 07:17:54;;;;;;;8.43;5.90;;;1.40;54.70;;;;;;5088574;28;20036;-63
2022/03/18 07:18:41;;;;;;;6.88;5.57;;;1.40;54.70;;;;;;5085390;28;20511;-63
2022/03/18 07:21:07;;;;;;;6.53;5.53;;;1.40;54.90;;;;;;5085552;28;20036;-63
2022/03/18 07:23:33;;;;;;;8.65;5.55;;;1.30;54.80;;;;;;5084716;28;20395;-63
2022/03/18 07:25:58;;;;;;;6.28;5.45;;;1.20;54.80;;;;;;5088963;28;20097;-63
2022/03/18 07:28:24;;;;;;;7.45;5.72;;;1.20;55.00;;;;;;5081383;28;20049;-63
2022/03/18 07:30:50;;;;;;;6.38;5.47;;;1.20;54.80;;;;;;5080261;28;20029;-61
2022/03/18 07:33:15;;;;;;;6.32;4.93;;;1.20;54.70;;;;;;5076044;28;20429;-65
2022/03/18 07:35:42;;;;;;;5.65;4.95;;;1.20;54.80;;;;;;5081719;28;20035;-63
2022/03/18 07:38:09;;;;;;;6.03;4.78;;;1.20;54.90;;;;;;5077896;28;20048;-63
2022/03/18 07:40:36;;;;;;;5.75;4.88;;;1.30;54.50;;;;;;5074362;28;20035;-62
2022/03/18 07:43:02;;;;;;;4.95;4.45;;;1.30;54.50;;;;;;5080584;28;20035;-63
2022/03/18 07:45:32;;;;;;;5.40;4.60;;;1.30;54.50;;;;;;5078462;28;20392;-62
2022/03/18 07:48:03;;;;;;;6.55;4.38;;;1.30;54.30;;;;;;5079549;28;20353;-62
2022/03/18 07:50:30;;;;;;;4.80;4.30;;;1.40;54.20;;;;;;5075889;28;20073;-61
2022/03/18 07:53:02;;;;;;;6.32;5.07;;;1.30;53.90;;;;;;5078664;28;20032;-63
2022/03/18 07:55:30;;;;;;;7.15;4.95;;;1.30;54.00;;;;;;5082182;28;20031;-65
2022/03/18 07:57:57;;;;;;;5.10;4.20;;;1.30;54.40;;;;;;5075412;28;20040;-64
2022/03/18 08:00:23;;;;;;;5.70;4.90;;;1.30;54.50;;;;;;5086312;28;20047;-63
2022/03/18 08:02:52;;;;;;;6.60;4.80;;;1.40;55.20;;;;;;5081076;28;20025;-62
2022/03/18 08:05:19;;;;;;;6.75;4.75;;;1.40;54.40;;;;;;5075816;28;20025;-63
2022/03/18 08:07:46;;;;;;;7.80;5.55;;;1.40;54.10;;;;;;5082845;28;20570;-64
2022/03/18 08:10:14;;;;;;;6.25;4.85;;;1.40;54.10;;;;;;5079790;28;20080;-64
2022/03/18 08:12:40;;;;;;;5.78;5.18;;;1.40;54.10;;;;;;5075935;28;20021;-64
2022/03/18 08:15:12;;;;;;;6.57;5.03;;;1.40;54.10;;;;;;5077865;28;20039;-64
2022/03/18 08:17:39;;;;;;;6.88;5.65;;;1.30;54.20;;;;;;5074950;28;20066;-63
2022/03/18 08:20:08;;;;;;;6.13;5.00;;;1.30;54.40;;;;;;5089992;28;20037;-64
2022/03/18 08:22:35;;;;;;;6.90;5.20;;;1.30;54.10;;;;;;5078759;28;20028;-64
2022/03/18 08:25:01;;;;;;;7.28;5.25;;;1.30;54.20;;;;;;5073709;28;20036;-63
2022/03/18 08:27:26;;;;;;;8.88;5.90;;;1.30;53.90;;;;;;5080306;28;20031;-64
2022/03/18 08:29:57;;;;;;;5.47;4.93;;;1.30;53.90;;;;;;5076760;28;20668;-64
2022/03/18 08:32:28;;;;;;;5.63;5.03;;;1.30;53.80;;;;;;5076118;28;20082;-63
2022/03/18 08:34:55;;;;;;;8.18;5.80;;;1.30;54.00;;;;;;5085794;28;20539;-63
2022/03/18 08:37:56;;;;;;;6.47;5.35;;;1.30;54.20;;;;;;5074452;28;20075;-64
2022/03/18 08:40:07;;;;;;;8.05;5.40;;;1.30;54.30;;;;;;5078055;28;20381;-63
2022/03/18 08:42:34;;;;;;;5.95;4.72;;;1.30;54.10;;;;;;5082726;28;20039;-64
2022/03/18 08:45:00;;;;;;;6.40;4.95;;;1.30;53.90;;;;;;5083069;28;20040;-65
2022/03/18 08:47:25;;;;;;;8.57;5.90;;;1.40;54.10;;;;;;5084161;28;20080;-64
2022/03/18 08:49:51;;;;;;;6.47;4.70;;;1.40;53.80;;;;;;5082986;28;20467;-64
2022/03/18 08:52:17;;;;;;;5.93;4.78;;;1.50;53.60;;;;;;5077858;28;20028;-64
2022/03/18 08:54:43;;;;;;;6.22;5.03;;;1.50;53.30;;;;;;5082238;28;20395;-65
2022/03/18 08:57:09;;;;;;;5.63;4.82;;;1.60;53.70;;;;;;5078808;28;20036;-64
2022/03/18 08:59:35;;;;;;;5.40;4.65;;;1.70;53.30;;;;;;5084724;27;20077;-64
2022/03/18 09:02:01;;;;;;;5.80;4.88;;;1.70;53.30;;;;;;5082475;28;20077;-64
2022/03/18 09:04:26;;;;;;;6.43;5.32;;;1.70;53.00;;;;;;5081709;28;20028;-64
2022/03/18 09:06:52;;;;;;;6.60;5.00;;;1.80;53.00;;;;;;5080391;28;20022;-64
2022/03/18 09:09:18;;;;;;;11.60;5.30;;;1.90;53.20;;;;;;5080273;28;20027;-64
2022/03/18 09:11:44;;;;;;;6.22;5.10;;;1.90;53.10;;;;;;5083690;28;20020;-64
2022/03/18 09:14:10;;;;;;;7.13;5.22;;;1.90;53.20;;;;;;5082270;28;20032;-64
2022/03/18 09:16:37;;;;;;;6.03;5.05;;;1.90;53.40;;;;;;5080439;28;20032;-64
2022/03/18 09:19:04;;;;;;;7.15;5.25;;;1.90;53.40;;;;;;5084907;28;20484;-64
2022/03/18 09:21:30;;;;;;;5.55;4.65;;;1.90;53.00;;;;;;5079323;28;20032;-64
2022/03/18 09:23:56;;;;;;;6.25;5.10;;;2.00;53.00;;;;;;5084258;28;20036;-65
2022/03/18 09:26:21;;;;;;;7.35;4.78;;;2.00;52.80;;;;;;5081000;28;20039;-65
2022/03/18 09:28:47;;;;;;;7.47;5.10;;;2.10;52.90;;;;;;5081795;28;20024;-64
2022/03/18 09:31:13;;;;;;;6.00;5.03;;;2.10;52.50;;;;;;5080178;28;20024;-65
2022/03/18 09:33:42;;;;;;;6.72;5.30;;;2.10;52.30;;;;;;5075915;28;20028;-65
2022/03/18 09:36:09;;;;;;;5.07;4.22;;;2.20;52.50;;;;;;5086387;28;20044;-65
2022/03/18 09:38:34;;;;;;;5.72;4.50;;;2.20;52.60;;;;;;5081678;28;20111;-65
2022/03/18 09:41:00;;;;;;;5.60;4.82;;;2.30;52.90;;;;;;5086011;28;20127;-65
2022/03/18 09:43:34;;;;;;;5.95;4.70;;;2.30;52.80;;;;;;5082337;28;20040;-65
2022/03/18 09:46:02;;;;;;;5.80;4.75;;;2.40;52.50;;;;;;5079039;28;20028;-65
2022/03/18 09:48:29;;;;;;;5.07;4.53;;;2.50;52.40;;;;;;5087550;28;20071;-65
2022/03/18 09:50:55;;;;;;;5.07;4.55;;;2.50;52.30;;;;;;5076151;28;20059;-65
2022/03/18 09:53:21;;;;;;;6.53;5.13;;;2.60;52.50;;;;;;5080432;28;20021;-65
2022/03/18 09:55:49;;;;;;;5.65;4.57;;;2.60;52.90;;;;;;5082913;28;20111;-65
2022/03/18 09:58:15;;;;;;;6.35;4.78;;;2.70;52.90;;;;;;5083612;28;20456;-65
2022/03/18 10:00:40;;;;;;;6.68;5.32;;;2.70;53.00;;;;;;5079306;28;20063;-66
2022/03/18 10:03:11;;;;;;;6.93;5.97;;;2.70;52.70;;;;;;5083371;28;20050;-66
2022/03/18 10:06:00;;;;;;;6.45;5.15;;;2.70;52.70;;;;;;5077563;28;20024;-65
2022/03/18 10:08:44;;;;;;;7.20;5.00;;;2.80;53.00;;;;;;5068983;28;20024;-65
2022/03/18 10:11:18;;;;;;;6.03;5.32;;;2.80;53.00;;;;;;5073907;28;20032;-65
2022/03/18 10:13:56;;;;;;;5.85;5.28;;;2.80;52.80;;;;;;5079973;28;20032;-65
2022/03/18 10:16:41;;;;;;;5.32;4.72;;;2.80;52.30;;;;;;5076493;28;20044;-65
2022/03/18 10:19:13;;;;;;;8.32;4.90;;;2.90;52.70;;;;;;5078408;28;20055;-65
2022/03/18 10:22:03;;;;;;;4.90;3.65;;;2.90;52.60;;;;;;5076730;28;20592;-65
2022/03/18 10:24:34;;;;;;;6.10;4.45;;;2.90;52.80;;;;;;5075431;28;20040;-65
2022/03/18 10:27:13;;;;;;;5.80;5.10;;;3.00;52.50;;;;;;5077097;28;20031;-65
2022/03/18 10:29:46;;;;;;;5.32;4.82;;;3.00;52.10;;;;;;5074600;28;20269;-65
2022/03/18 10:32:13;;;;;;;6.57;4.97;;;3.00;52.00;;;;;;5084254;28;20380;-64
2022/03/18 10:37:26;;;;;;;6.35;5.47;;;3.00;52.20;;;;;;5078635;28;20094;-66
2022/03/18 10:40:00;;;;;;;5.65;4.10;;;3.00;52.10;;;;;;5082201;28;20032;-65
2022/03/18 10:42:26;;;;;;;4.80;4.30;;;3.00;51.90;;;;;;5080531;28;20040;-66
2022/03/18 10:44:51;;;;;;;6.22;4.70;;;3.00;52.20;;;;;;5080445;28;20046;-66
2022/03/18 10:47:26;;;;;;;7.10;5.68;;;3.10;52.20;;;;;;5076222;28;20047;-66
2022/03/18 10:50:10;;;;;;;6.65;4.55;;;3.20;52.40;;;;;;5080134;28;20081;-66
2022/03/18 10:52:41;;;;;;;6.57;5.80;;;3.20;51.80;;;;;;5078529;28;20032;-66
2022/03/18 10:55:20;;;;;;;6.60;3.93;;;3.30;52.20;;;;;;5075124;28;20055;-66
2022/03/18 10:57:52;;;;;;;7.55;6.10;;;3.40;51.50;;;;;;5084167;28;20032;-66
2022/03/18 11:00:19;;;;;;;6.53;5.50;;;3.50;51.60;;;;;;5084522;28;20116;-66
2022/03/18 11:02:48;;;;;;;5.82;5.22;;;3.50;51.60;;;;;;5078565;28;20043;-65
2022/03/18 11:05:14;;;;;;;7.80;4.80;;;3.70;51.60;;;;;;5074941;28;20020;-66
2022/03/18 11:07:43;;;;;;;7.50;4.55;;;3.60;51.20;;;;;;5077147;28;20594;-65
2022/03/18 11:12:59;;;;;;;6.18;4.40;;;3.60;51.60;;;;;;5074924;28;20096;-66
2022/03/18 11:15:26;;;;;;;6.65;5.68;;;3.60;51.60;;;;;;5077963;28;20043;-66
2022/03/18 11:17:56;;;;;;;7.00;5.70;;;3.50;51.50;;;;;;5077677;28;20158;-66
2022/03/18 11:20:27;;;;;;;6.88;5.38;;;3.60;51.30;;;;;;5080594;28;20039;-65
2022/03/18 11:22:56;;;;;;;6.07;5.38;;;3.60;51.40;;;;;;5076954;28;20084;-64
2022/03/18 11:25:23;;;;;;;5.85;5.25;;;3.50;51.20;;;;;;5075752;28;20032;-64
2022/03/18 11:27:49;;;;;;;6.20;5.60;;;3.50;51.00;;;;;;5080445;28;20100;-61
2022/03/18 11:30:23;;;;;;;7.28;6.55;;;3.60;51.10;;;;;;5082632;28;20028;-61
2022/03/18 11:33:11;;;;;;;7.43;5.60;;;3.60;50.70;;;;;;5080010;28;20039;-63
2022/03/18 11:35:48;;;;;;;6.18;5.57;;;3.70;50.90;;;;;;5083936;28;20535;-62
2022/03/18 11:38:30;;;;;;;6.43;5.47;;;3.70;50.70;;;;;;5072315;28;20494;-61
2022/03/18 11:41:05;;;;;;;5.43;4.90;;;3.70;50.70;;;;;;5074869;28;20783;-60
2022/03/18 11:43:41;;;;;;;6.63;5.60;;;3.80;50.70;;;;;;5076404;28;20031;-62
2022/03/18 11:46:12;;;;;;;5.90;5.38;;;3.80;51.00;;;;;;5084789;28;20024;-62
2022/03/18 11:48:49;;;;;;;6.20;5.32;;;3.80;50.90;;;;;;5080877;28;20511;-64
2022/03/18 11:51:40;;;;;;;6.22;5.07;;;3.80;51.60;;;;;;5083422;28;20028;-62
2022/03/18 11:54:25;;;;;;;5.25;3.72;;;3.80;51.50;;;;;;5084489;28;20040;-62
2022/03/18 11:56:53;;;;;;;5.70;5.00;;;3.70;51.60;;;;;;5083301;28;20081;-62
2022/03/18 11:59:25;;;;;;;7.15;5.90;;;3.70;51.30;;;;;;5082528;28;20078;-62
2022/03/18 12:02:04;;;;;;;6.15;5.55;;;3.80;51.40;;;;;;5085853;28;20036;-63
2022/03/18 12:04:33;;;;;;;7.38;5.30;;;3.80;51.10;;;;;;5084196;28;20040;-65
2022/03/18 12:07:20;;;;;;;7.07;6.00;;;3.80;51.10;;;;;;5079935;28;20028;-61
2022/03/18 12:10:04;;;;;;;6.18;5.50;;;3.80;51.10;;;;;;5082318;28;20024;-61
2022/03/18 12:12:31;;;;;;;5.63;4.78;;;3.90;51.10;;;;;;5070018;28;20131;-63
2022/03/18 12:15:02;;;;;;;5.95;5.40;;;3.90;51.10;;;;;;5075919;28;20093;-61
2022/03/18 12:17:28;;;;;;;5.22;4.07;;;3.90;50.90;;;;;;5079380;28;20476;-63
2022/03/18 12:20:00;;;;;;;6.57;5.40;;;3.80;51.00;;;;;;5080205;28;20105;-63
2022/03/18 12:22:28;;;;;;;8.23;5.80;;;3.80;51.00;;;;;;5076038;28;20040;-61
2022/03/18 12:24:57;;;;;;;6.10;5.50;;;3.80;50.70;;;;;;5073651;28;20059;-61
2022/03/18 12:27:29;;;;;;;6.25;5.43;;;3.90;50.70;;;;;;5078075;28;20034;-62
2022/03/18 12:30:01;;;;;;;7.07;5.50;;;4.00;51.00;;;;;;5072049;28;20027;-63
2022/03/18 12:32:28;;;;;;;6.07;5.32;;;4.00;51.10;;;;;;5075786;28;20050;-63
2022/03/18 12:34:54;;;;;;;5.82;4.10;;;4.10;51.10;;;;;;5072799;28;20024;-63
2022/03/18 12:37:23;;;;;;;6.35;5.35;;;4.00;51.30;;;;;;5082531;28;20051;-63
2022/03/18 12:40:02;;;;;;;7.93;5.28;;;4.10;51.10;;;;;;5081997;28;20055;-64
2022/03/18 12:42:28;;;;;;;5.88;5.20;;;4.10;50.50;;;;;;5074063;28;20036;-64
2022/03/18 12:44:59;;;;;;;5.80;5.20;;;4.10;50.30;;;;;;5081911;28;20031;-65
2022/03/18 12:47:30;;;;;;;5.72;4.93;;;4.20;50.20;;;;;;5082988;28;20066;-64
2022/03/18 12:49:55;;;;;;;5.38;4.55;;;4.20;50.20;;;;;;5068924;28;20036;-63
2022/03/18 12:52:21;;;;;;;5.20;4.70;;;4.20;50.20;;;;;;5074720;28;20071;-64
2022/03/18 12:55:07;;;;;;;5.43;3.83;;;4.20;50.20;;;;;;5077265;28;20036;-64
2022/03/18 12:57:35;;;;;;;5.15;4.65;;;4.10;50.60;;;;;;5076267;28;20399;-63
2022/03/18 13:00:00;;;;;;;6.60;3.50;;;4.10;50.60;;;;;;5084183;28;20031;-63
2022/03/18 13:02:26;;;;;;;6.53;5.18;;;4.00;50.70;;;;;;5079441;28;20028;-65
2022/03/18 13:04:58;;;;;;;6.13;4.88;;;4.00;51.60;;;;;;5081069;28;20059;-66
2022/03/18 13:07:26;;;;;;;6.63;3.95;;;4.10;51.00;;;;;;5083171;28;20024;-65
2022/03/18 13:09:52;;;;;;;5.57;4.95;;;4.00;51.10;;;;;;5075272;28;20032;-66
2022/03/18 13:12:32;;;;;;;5.65;4.95;;;4.10;51.20;;;;;;5111498;27;20055;-66